Time;durP1;ratioP1;P1;durP2;ratioP2;P2;SDS_P1;SDS_P2;PMS_P1;PMS_P2;Temp;Humidity;BMP_temperature;BMP_pressure;BME280_temperature;BME280_humidity;BME280_pressure;Samples;Min_cycle;Max_cycle;Signal;HPM_P1;HPM_P2
2022/05/25 00:01:09;;;;;;;10.27;3.03;;;;;;;16.84;100.00;97616.72;4947484;28;20038;-56
2022/05/25 00:03:35;;;;;;;11.23;3.15;;;;;;;16.97;100.00;97606.94;4948303;28;20126;-56
2022/05/25 00:06:04;;;;;;;10.65;2.88;;;;;;;16.86;100.00;97614.81;4946313;28;20093;-56
2022/05/25 00:08:30;;;;;;;10.65;3.20;;;;;;;16.76;100.00;97615.44;4945677;28;20121;-58
2022/05/25 00:10:56;;;;;;;12.35;3.08;;;;;;;16.70;100.00;97622.94;4944597;28;20031;-56
2022/05/25 00:13:23;;;;;;;10.32;3.00;;;;;;;16.85;100.00;97624.47;4948184;28;20403;-57
2022/05/25 00:15:48;;;;;;;10.15;2.80;;;;;;;16.90;100.00;97621.53;4948521;28;20118;-57
2022/05/25 00:18:13;;;;;;;14.77;3.15;;;;;;;16.40;100.00;97625.97;4947237;28;20022;-57
2022/05/25 00:20:39;;;;;;;10.07;2.72;;;;;;;16.70;100.00;97638.72;4945547;28;20121;-57
2022/05/25 00:23:04;;;;;;;10.18;2.90;;;;;;;16.39;100.00;97643.53;4948667;28;20123;-56
2022/05/25 00:25:33;;;;;;;10.63;3.08;;;;;;;16.67;100.00;97637.16;4947897;28;20164;-56
2022/05/25 00:28:01;;;;;;;11.40;3.10;;;;;;;16.09;100.00;97636.00;4945986;28;20051;-56
2022/05/25 00:30:27;;;;;;;11.93;3.30;;;;;;;16.12;100.00;97641.03;4945296;28;20023;-56
2022/05/25 00:32:57;;;;;;;9.18;2.83;;;;;;;16.47;100.00;97632.47;4947010;28;20070;-60
2022/05/25 00:35:24;;;;;;;10.73;3.00;;;;;;;16.12;100.00;97641.91;4946770;28;20027;-57
2022/05/25 00:37:50;;;;;;;11.85;2.90;;;;;;;16.19;100.00;97644.94;4947520;28;20059;-56
2022/05/25 00:40:21;;;;;;;13.18;3.30;;;;;;;15.99;100.00;97628.75;4944493;28;20081;-56
2022/05/25 00:42:46;;;;;;;13.98;3.42;;;;;;;16.33;100.00;97639.53;4946627;28;20574;-56
2022/05/25 00:45:13;;;;;;;12.05;3.03;;;;;;;16.15;100.00;97631.13;4947006;28;20032;-57
2022/05/25 00:47:41;;;;;;;12.93;3.20;;;;;;;15.89;100.00;97632.94;4949268;28;20029;-56
2022/05/25 00:50:10;;;;;;;13.93;3.45;;;;;;;15.89;100.00;97634.75;4950393;28;20031;-57
2022/05/25 00:52:38;;;;;;;10.40;2.72;;;;;;;15.94;100.00;97627.38;4949509;28;20058;-57
2022/05/25 00:55:07;;;;;;;12.02;2.80;;;;;;;15.77;100.00;97623.28;4951516;28;20058;-57
2022/05/25 00:57:36;;;;;;;12.45;2.92;;;;;;;15.78;100.00;97632.84;4950588;28;20031;-56
2022/05/25 01:00:10;;;;;;;11.93;3.35;;;;;;;15.85;100.00;97634.09;4951313;28;20483;-57
2022/05/25 01:02:48;;;;;;;14.18;3.35;;;;;;;16.04;100.00;97638.94;4949061;28;20562;-56
2022/05/25 01:05:19;;;;;;;11.25;2.92;;;;;;;15.76;100.00;97645.25;4950541;28;20037;-56
2022/05/25 01:07:56;;;;;;;10.60;3.00;;;;;;;15.80;100.00;97636.22;4950794;28;20058;-57
2022/05/25 01:10:48;;;;;;;10.20;2.85;;;;;;;15.67;100.00;97643.22;4949214;28;20488;-57
2022/05/25 01:13:38;;;;;;;9.77;2.58;;;;;;;15.45;100.00;97647.28;4949721;28;20034;-57
2022/05/25 01:16:31;;;;;;;12.48;2.95;;;;;;;15.47;100.00;97647.19;4950194;28;20080;-57
2022/05/25 01:19:08;;;;;;;12.05;2.97;;;;;;;15.77;100.00;97647.78;4950519;28;20098;-57
2022/05/25 01:21:51;;;;;;;10.85;2.60;;;;;;;15.66;100.00;97660.78;4951191;28;20785;-56
2022/05/25 01:24:46;;;;;;;9.60;2.85;;;;;;;15.52;100.00;97668.75;4948263;28;20520;-57
2022/05/25 01:27:28;;;;;;;8.10;2.50;;;;;;;15.22;100.00;97681.16;4950225;28;20090;-56
2022/05/25 01:30:03;;;;;;;;;;;;;;;15.27;100.00;97686.09;4949359;28;20031;-55
2022/05/25 01:32:37;;;;;;;10.43;3.00;;;;;;;15.20;100.00;97688.31;4950005;28;19922;-56
2022/05/25 01:35:12;;;;;;;10.88;3.10;;;;;;;14.97;100.00;97687.16;4947154;28;20027;-57
2022/05/25 01:37:52;;;;;;;11.95;3.20;;;;;;;15.02;100.00;97681.63;4951397;28;20408;-56
2022/05/25 01:40:23;;;;;;;11.77;3.15;;;;;;;15.04;100.00;97692.88;4946185;28;20568;-55
2022/05/25 01:42:58;;;;;;;14.47;3.50;;;;;;;15.14;100.00;97691.31;4949899;28;20059;-55
2022/05/25 01:45:29;;;;;;;10.93;3.20;;;;;;;14.88;100.00;97689.53;4949947;28;20274;-57
2022/05/25 01:47:59;;;;;;;10.25;3.20;;;;;;;15.09;100.00;97685.53;4949948;28;20058;-56
2022/05/25 01:50:32;;;;;;;12.30;3.65;;;;;;;14.68;100.00;97694.25;4947983;28;20045;-56
2022/05/25 01:53:01;;;;;;;12.23;3.55;;;;;;;14.87;100.00;97687.81;4951672;28;20027;-56
2022/05/25 01:55:33;;;;;;;11.93;3.63;;;;;;;14.67;100.00;97682.06;4950822;28;20030;-58
2022/05/25 01:58:04;;;;;;;11.67;3.50;;;;;;;14.70;100.00;97676.59;4949511;28;20031;-56
2022/05/25 02:00:35;;;;;;;13.57;3.70;;;;;;;14.77;100.00;97667.41;4947490;28;20117;-57
2022/05/25 02:06:22;;;;;;;13.00;3.67;;;;;;;14.83;100.00;97674.91;4948579;28;20042;-56
2022/05/25 02:08:58;;;;;;;12.05;3.50;;;;;;;14.89;100.00;97678.94;4948801;28;20669;-57
2022/05/25 02:11:37;;;;;;;15.13;4.05;;;;;;;14.77;100.00;97675.28;4946733;28;20098;-56
2022/05/25 02:14:17;;;;;;;11.02;3.60;;;;;;;14.70;100.00;97676.59;4950357;28;20039;-56
2022/05/25 02:16:55;;;;;;;10.82;3.65;;;;;;;14.80;100.00;97684.75;4949003;28;20121;-57
2022/05/25 02:19:45;;;;;;;10.02;3.47;;;;;;;14.67;100.00;97683.84;4949614;28;20066;-57
2022/05/25 02:22:19;;;;;;;13.52;3.95;;;;;;;14.68;100.00;97681.13;4947280;28;20039;-57
2022/05/25 02:25:33;;;;;;;11.90;3.67;;;;;;;14.70;100.00;97687.09;4949316;28;20085;-57
2022/05/25 02:28:09;;;;;;;10.63;3.25;;;;;;;14.83;100.00;97693.28;4947393;28;20035;-56
2022/05/25 02:30:40;;;;;;;16.30;4.28;;;;;;;15.11;100.00;97707.28;4947322;28;20046;-57
2022/05/25 02:33:15;;;;;;;10.52;3.28;;;;;;;15.11;100.00;97704.66;4949440;28;20082;-56
2022/05/25 02:35:44;;;;;;;13.68;4.00;;;;;;;14.72;100.00;97706.25;4949760;28;20042;-56
2022/05/25 02:38:11;;;;;;;11.50;3.53;;;;;;;14.95;100.00;97712.66;4948293;28;20038;-56
2022/05/25 02:40:38;;;;;;;12.27;3.65;;;;;;;14.87;100.00;97714.09;4947468;28;20496;-56
2022/05/25 02:43:06;;;;;;;12.13;3.88;;;;;;;14.76;100.00;97723.50;4947471;28;20388;-55
2022/05/25 02:45:31;;;;;;;13.30;3.80;;;;;;;14.52;100.00;97723.22;4948752;28;20039;-56
2022/05/25 02:47:57;;;;;;;11.25;3.90;;;;;;;14.95;100.00;97731.06;4947418;28;20029;-57
2022/05/25 02:50:22;;;;;;;12.70;3.92;;;;;;;15.13;100.00;97725.59;4948470;28;20452;-58
2022/05/25 02:52:48;;;;;;;12.70;3.90;;;;;;;14.86;100.00;97715.88;4948345;28;20066;-56
2022/05/25 02:55:13;;;;;;;13.77;4.00;;;;;;;14.58;100.00;97719.38;4947710;28;20879;-56
2022/05/25 02:57:39;;;;;;;12.50;4.00;;;;;;;14.41;100.00;97723.00;4947035;28;20027;-57
2022/05/25 03:00:05;;;;;;;18.42;5.05;;;;;;;14.50;100.00;97718.97;4945283;28;20027;-56
2022/05/25 03:02:31;;;;;;;15.15;4.45;;;;;;;14.80;100.00;97703.97;4946343;28;20081;-57
2022/05/25 03:04:56;;;;;;;13.18;3.40;;;;;;;15.15;100.00;97715.81;4948186;28;20701;-56
2022/05/25 03:07:21;;;;;;;13.63;4.00;;;;;;;14.61;100.00;97719.19;4947109;28;20047;-57
2022/05/25 03:09:47;;;;;;;13.63;4.13;;;;;;;14.64;100.00;97725.09;4947626;28;20046;-56
2022/05/25 03:12:13;;;;;;;12.55;4.03;;;;;;;14.53;100.00;97726.66;4947122;28;20176;-56
2022/05/25 03:14:39;;;;;;;12.50;4.20;;;;;;;14.61;100.00;97725.28;4948975;28;20189;-57
2022/05/25 03:17:09;;;;;;;13.02;4.22;;;;;;;14.79;100.00;97727.69;4947039;28;20035;-57
2022/05/25 03:19:38;;;;;;;11.55;4.18;;;;;;;14.77;100.00;97719.91;4948955;28;20022;-57
2022/05/25 03:22:03;;;;;;;13.63;4.63;;;;;;;14.35;100.00;97724.22;4946892;28;20044;-57
2022/05/25 03:24:28;;;;;;;12.27;4.45;;;;;;;14.56;100.00;97726.50;4949559;28;20023;-56
2022/05/25 03:26:54;;;;;;;12.55;4.05;;;;;;;14.73;100.00;97726.31;4950205;28;20042;-57
2022/05/25 03:29:20;;;;;;;12.60;3.90;;;;;;;14.71;100.00;97730.81;4946986;28;20113;-57
2022/05/25 03:31:46;;;;;;;13.88;4.38;;;;;;;14.64;100.00;97734.75;4946379;28;20074;-56
2022/05/25 03:34:12;;;;;;;12.77;4.32;;;;;;;14.70;100.00;97734.34;4948050;28;20287;-57
2022/05/25 03:36:37;;;;;;;12.52;4.57;;;;;;;14.88;100.00;97740.25;4948978;28;20038;-56
2022/05/25 03:39:02;;;;;;;11.07;3.90;;;;;;;14.83;100.00;97737.94;4947780;28;20049;-56
2022/05/25 03:41:28;;;;;;;12.98;3.72;;;;;;;15.08;100.00;97728.50;4947166;28;20050;-56
2022/05/25 03:43:53;;;;;;;11.95;4.07;;;;;;;14.84;100.00;97725.63;4948627;28;20122;-57
2022/05/25 03:46:19;;;;;;;13.70;3.95;;;;;;;15.06;100.00;97725.13;4948602;28;20043;-56
2022/05/25 03:48:44;;;;;;;12.23;4.22;;;;;;;14.69;100.00;97743.19;4947262;28;20027;-56
2022/05/25 03:51:10;;;;;;;12.30;4.43;;;;;;;14.62;100.00;97747.13;4946189;28;20585;-58
2022/05/25 03:53:35;;;;;;;12.15;4.28;;;;;;;14.75;100.00;97748.06;4947372;28;20075;-58
2022/05/25 03:56:01;;;;;;;11.63;3.97;;;;;;;14.77;100.00;97747.97;4947909;28;20058;-56
2022/05/25 03:58:26;;;;;;;15.68;4.68;;;;;;;14.74;100.00;97753.38;4948571;28;20648;-57
2022/05/25 04:00:52;;;;;;;15.02;4.55;;;;;;;14.67;100.00;97755.56;4946439;28;20400;-56
2022/05/25 04:03:17;;;;;;;15.15;4.43;;;;;;;14.74;100.00;97759.50;4946337;28;20074;-56
2022/05/25 04:05:43;;;;;;;13.88;4.20;;;;;;;14.72;100.00;97758.75;4948139;28;20035;-57
2022/05/25 04:08:10;;;;;;;14.15;4.53;;;;;;;14.89;100.00;97748.97;4946372;28;20023;-56
2022/05/25 04:10:35;;;;;;;12.18;4.60;;;;;;;14.58;100.00;97756.97;4947138;28;20464;-57
2022/05/25 04:13:01;;;;;;;13.95;4.18;;;;;;;15.04;100.00;97764.63;4948500;28;20528;-56
2022/05/25 04:15:29;;;;;;;14.50;4.70;;;;;;;14.82;100.00;97765.09;4947336;28;20038;-56
2022/05/25 04:17:55;;;;;;;14.60;4.75;;;;;;;14.85;100.00;97777.22;4948281;28;20027;-56
2022/05/25 04:20:22;;;;;;;13.50;4.35;;;;;;;14.84;100.00;97788.66;4947796;28;20027;-56
2022/05/25 04:22:48;;;;;;;12.73;3.95;;;;;;;14.86;100.00;97775.44;4952121;28;20113;-57
2022/05/25 04:25:16;;;;;;;14.10;4.43;;;;;;;14.79;100.00;97780.22;4952055;28;20033;-56
2022/05/25 04:27:43;;;;;;;13.23;4.15;;;;;;;14.74;100.00;97783.13;4951011;28;20058;-57
2022/05/25 04:30:13;;;;;;;19.00;5.07;;;;;;;14.72;100.00;97786.78;4947366;28;21000;-56
2022/05/25 04:32:38;;;;;;;12.30;4.57;;;;;;;14.87;100.00;97783.22;4948824;28;20032;-56
2022/05/25 04:35:04;;;;;;;13.40;4.72;;;;;;;14.72;100.00;97790.25;4953230;28;20061;-56
2022/05/25 04:40:15;;;;;;;16.00;5.30;;;;;;;14.38;100.00;97789.63;4948262;28;20118;-56
2022/05/25 04:42:43;;;;;;;15.05;4.75;;;;;;;14.31;100.00;97804.03;4949577;28;20067;-56
2022/05/25 04:45:09;;;;;;;13.13;4.53;;;;;;;14.66;100.00;97811.63;4951443;28;20038;-56
2022/05/25 04:47:37;;;;;;;18.25;6.25;;;;;;;14.80;100.00;97809.00;4950797;28;20051;-56
2022/05/25 04:50:03;;;;;;;23.50;6.18;;;;;;;14.49;100.00;97809.16;4949659;28;20503;-56
2022/05/25 04:52:30;;;;;;;14.70;5.43;;;;;;;14.34;100.00;97811.75;4964521;28;20106;-57
2022/05/25 04:54:55;;;;;;;14.98;4.78;;;;;;;14.84;100.00;97805.25;4948645;28;20038;-56
2022/05/25 04:57:22;;;;;;;14.18;5.00;;;;;;;14.61;100.00;97811.03;4949449;28;20038;-57
2022/05/25 04:59:50;;;;;;;15.35;5.30;;;;;;;14.56;100.00;97810.47;4949770;28;20109;-56
2022/05/25 05:02:16;;;;;;;18.65;5.53;;;;;;;14.19;100.00;97823.13;4949992;28;20050;-57
2022/05/25 05:04:42;;;;;;;15.00;4.60;;;;;;;14.76;100.00;97828.50;4947879;28;20564;-55
2022/05/25 05:07:08;;;;;;;17.45;5.13;;;;;;;14.79;100.00;97838.81;4950316;28;20038;-55
2022/05/25 05:09:35;;;;;;;17.40;5.03;;;;;;;14.90;100.00;97846.03;4949407;28;20856;-56
2022/05/25 05:12:01;;;;;;;11.82;3.53;;;;;;;15.17;100.00;97843.50;4950103;28;20625;-57
2022/05/25 05:14:26;;;;;;;16.80;5.53;;;;;;;14.94;100.00;97842.31;4952659;28;20117;-57
2022/05/25 05:16:56;;;;;;;15.77;4.70;;;;;;;14.70;100.00;97839.38;4950730;28;20098;-57
2022/05/25 05:19:21;;;;;;;12.57;4.50;;;;;;;14.90;100.00;97834.69;4950278;28;20026;-57
2022/05/25 05:21:46;;;;;;;13.45;4.63;;;;;;;14.82;100.00;97820.25;4949339;28;20045;-55
2022/05/25 05:24:12;;;;;;;15.45;5.57;;;;;;;14.77;100.00;97819.69;4950158;28;20039;-56
2022/05/25 05:26:37;;;;;;;17.50;6.40;;;;;;;14.68;100.00;97816.78;4950290;28;20697;-55
2022/05/25 05:29:02;;;;;;;17.95;6.80;;;;;;;14.73;100.00;97826.06;4949356;28;20030;-56
2022/05/25 05:31:28;;;;;;;21.75;7.40;;;;;;;14.77;100.00;97824.94;4948942;28;20089;-56
2022/05/25 05:33:54;;;;;;;15.65;5.55;;;;;;;14.53;100.00;97826.41;4948226;28;20416;-56
2022/05/25 05:36:30;;;;;;;15.68;5.15;;;;;;;14.49;100.00;97824.91;4950516;28;20031;-57
2022/05/25 05:39:07;;;;;;;15.40;5.47;;;;;;;14.42;100.00;97835.72;4949599;28;20026;-56
2022/05/25 05:41:39;;;;;;;14.93;5.35;;;;;;;14.73;100.00;97844.44;4946945;28;20027;-56
2022/05/25 05:44:06;;;;;;;;;;;;;;;14.82;100.00;97841.25;4951553;28;20054;-56
2022/05/25 05:46:34;;;;;;;18.63;5.38;;;;;;;14.60;100.00;97867.13;4951288;28;19917;-56
2022/05/25 05:49:00;;;;;;;16.50;5.38;;;;;;;14.72;100.00;97878.66;4964247;28;20121;-55
2022/05/25 05:51:25;;;;;;;15.80;5.45;;;;;;;14.59;100.00;97874.16;4947404;28;20075;-56
2022/05/25 05:53:51;;;;;;;16.30;5.25;;;;;;;14.35;100.00;97879.00;4948846;28;20409;-58
2022/05/25 05:56:18;;;;;;;14.45;5.22;;;;;;;14.61;100.00;97887.16;4950285;28;20039;-57
2022/05/25 05:58:43;;;;;;;18.80;5.45;;;;;;;14.95;100.00;97883.38;4948224;28;20109;-56
2022/05/25 06:01:08;;;;;;;15.50;5.22;;;;;;;15.07;100.00;97894.06;4948085;28;20580;-57
2022/05/25 06:03:34;;;;;;;19.40;5.25;;;;;;;14.98;100.00;97906.84;4950123;28;20038;-57
2022/05/25 06:05:59;;;;;;;17.83;5.00;;;;;;;14.99;100.00;97915.53;4948453;28;20042;-55
2022/05/25 06:08:26;;;;;;;12.60;5.05;;;;;;;15.16;100.00;97910.13;4950260;28;20122;-57
2022/05/25 06:10:52;;;;;;;14.90;5.15;;;;;;;14.96;100.00;97918.34;4946554;28;20038;-57
2022/05/25 06:13:17;;;;;;;12.15;4.72;;;;;;;15.33;100.00;97922.22;4946744;28;20251;-56
2022/05/25 06:21:16;;;;;;;20.20;5.25;;;;;;;15.09;100.00;97949.97;4948054;28;20323;-56
2022/05/25 06:23:41;;;;;;;16.30;4.63;;;;;;;14.95;100.00;97949.03;4945981;28;20039;-56
2022/05/25 06:26:07;;;;;;;15.50;5.60;;;;;;;15.04;100.00;97942.38;4950385;28;20038;-56
2022/05/25 06:28:33;;;;;;;17.77;5.13;;;;;;;15.18;100.00;97950.28;4948158;28;20114;-56
2022/05/25 06:30:58;;;;;;;18.05;5.25;;;;;;;15.28;100.00;97954.97;4948682;28;20046;-57
2022/05/25 06:33:24;;;;;;;12.82;4.15;;;;;;;15.46;100.00;97951.22;4949346;28;20027;-56
2022/05/25 06:35:49;;;;;;;12.40;4.70;;;;;;;15.26;100.00;97956.88;4949354;28;20039;-56
2022/05/25 06:38:15;;;;;;;14.93;4.88;;;;;;;15.25;100.00;97947.28;4948802;28;20502;-56
2022/05/25 06:40:40;;;;;;;13.43;4.60;;;;;;;15.36;100.00;97950.09;4948744;28;20127;-57
2022/05/25 06:43:06;;;;;;;13.65;5.10;;;;;;;15.59;100.00;97944.25;4949553;28;20061;-56
2022/05/25 06:45:31;;;;;;;16.75;4.72;;;;;;;15.60;100.00;97945.97;4948578;28;20481;-56
2022/05/25 06:47:56;;;;;;;15.40;4.38;;;;;;;15.21;100.00;97950.09;4950399;28;20034;-56
2022/05/25 06:50:22;;;;;;;13.43;4.18;;;;;;;15.79;100.00;97955.34;4946577;28;20086;-58
2022/05/25 06:52:47;;;;;;;15.93;4.75;;;;;;;15.59;100.00;97949.53;4947458;28;20019;-57
2022/05/25 06:55:12;;;;;;;12.75;4.30;;;;;;;15.56;100.00;97954.13;4948773;28;20039;-56
2022/05/25 06:57:38;;;;;;;11.38;4.32;;;;;;;15.58;100.00;97953.06;4948315;28;20030;-57
2022/05/25 07:00:04;;;;;;;16.65;4.93;;;;;;;15.76;100.00;97955.53;4946721;28;20035;-57
2022/05/25 07:02:30;;;;;;;14.27;5.00;;;;;;;15.86;100.00;97951.41;4946680;28;20094;-56
2022/05/25 07:04:55;;;;;;;14.57;4.60;;;;;;;15.94;100.00;97943.03;4948663;28;20403;-58
2022/05/25 07:07:21;;;;;;;10.20;4.13;;;;;;;16.11;100.00;97949.81;4948986;28;20046;-57
2022/05/25 07:09:46;;;;;;;14.57;4.43;;;;;;;16.24;100.00;97955.97;4947739;28;20022;-58
2022/05/25 07:12:11;;;;;;;14.02;4.80;;;;;;;15.98;100.00;97958.50;4948144;28;20050;-55
2022/05/25 07:14:39;;;;;;;12.25;4.25;;;;;;;16.17;100.00;97959.94;4947475;28;20027;-58
2022/05/25 07:17:05;;;;;;;12.75;4.57;;;;;;;16.35;100.00;97961.38;4947196;28;20043;-58
2022/05/25 07:19:31;;;;;;;14.25;4.50;;;;;;;16.48;100.00;97952.69;4948513;28;20118;-56
2022/05/25 07:21:56;;;;;;;16.00;4.88;;;;;;;17.04;100.00;97949.84;4947241;28;20047;-57
2022/05/25 07:24:21;;;;;;;15.23;4.80;;;;;;;17.40;100.00;97956.19;4950359;28;20031;-56
2022/05/25 07:26:47;;;;;;;11.43;4.30;;;;;;;17.15;100.00;97957.91;4947360;28;20039;-56
2022/05/25 07:29:12;;;;;;;11.25;4.55;;;;;;;17.12;100.00;97951.03;4947600;28;20042;-56
2022/05/25 07:31:55;;;;;;;10.68;4.28;;;;;;;17.43;100.00;97951.56;4945831;28;20045;-57
2022/05/25 07:34:26;;;;;;;12.05;3.67;;;;;;;17.86;100.00;97958.25;4948783;28;20105;-56
2022/05/25 07:36:56;;;;;;;14.15;4.75;;;;;;;18.21;100.00;97958.34;4946936;28;20105;-56
2022/05/25 07:39:26;;;;;;;10.02;3.97;;;;;;;18.25;100.00;97951.03;4948422;28;20023;-57
2022/05/25 07:41:57;;;;;;;10.38;3.95;;;;;;;19.16;100.00;97949.59;4945819;28;20066;-57
2022/05/25 07:44:32;;;;;;;10.02;3.60;;;;;;;19.55;100.00;97942.97;4948602;28;20027;-57
2022/05/25 07:46:57;;;;;;;12.43;4.25;;;;;;;20.02;100.00;97948.97;4947332;28;20043;-57
2022/05/25 07:49:26;;;;;;;9.63;3.60;;;;;;;20.78;100.00;97948.13;4949409;28;20063;-57
2022/05/25 07:51:53;;;;;;;9.70;3.35;;;;;;;20.98;100.00;97944.63;4945819;28;20046;-58
2022/05/25 07:54:19;;;;;;;8.23;3.10;;;;;;;20.27;100.00;97946.16;4947720;28;20037;-57
2022/05/25 07:56:45;;;;;;;7.68;3.00;;;;;;;20.20;100.00;97941.34;4946407;28;20039;-57
2022/05/25 07:59:13;;;;;;;7.45;2.97;;;;;;;21.43;100.00;97954.13;4946917;28;20031;-57
2022/05/25 08:07:18;;;;;;;9.48;3.08;;;;;;;24.30;100.00;97954.47;4947277;28;20046;-58
2022/05/25 08:09:43;;;;;;;7.55;2.97;;;;;;;24.31;76.62;97948.16;4948888;28;20586;-58
2022/05/25 08:12:10;;;;;;;8.15;2.70;;;;;;;27.19;67.23;97953.03;4946274;28;20489;-58
2022/05/25 08:14:36;;;;;;;5.07;2.60;;;;;;;27.76;61.07;97955.59;4948951;28;20027;-57
2022/05/25 08:17:04;;;;;;;8.68;3.13;;;;;;;27.77;61.55;97957.25;4946769;28;20043;-58
2022/05/25 08:19:30;;;;;;;6.28;2.55;;;;;;;26.93;58.58;97954.06;4947853;28;20027;-58
2022/05/25 08:21:56;;;;;;;6.00;2.50;;;;;;;28.31;55.35;97944.97;4947474;28;20047;-57
2022/05/25 08:24:22;;;;;;;3.80;2.10;;;;;;;26.92;54.78;97947.84;4947538;28;20035;-58
2022/05/25 08:26:47;;;;;;;5.18;2.30;;;;;;;29.28;52.29;97942.56;4947325;28;20031;-57
2022/05/25 08:29:12;;;;;;;3.78;1.90;;;;;;;29.52;44.68;97946.81;4947167;28;20042;-57
2022/05/25 08:31:38;;;;;;;3.85;1.83;;;;;;;29.39;41.36;97946.63;4945112;28;20039;-57
2022/05/25 08:34:04;;;;;;;5.32;1.50;;;;;;;29.32;39.70;97945.72;4946765;28;20098;-59
2022/05/25 08:36:30;;;;;;;4.15;1.75;;;;;;;28.98;42.52;97938.94;4946135;28;20050;-58
2022/05/25 08:38:56;;;;;;;3.58;1.73;;;;;;;30.28;38.76;97940.34;4946963;28;20554;-57
2022/05/25 08:41:33;;;;;;;5.20;1.88;;;;;;;28.75;40.28;97944.34;4945656;28;20496;-58
2022/05/25 08:44:00;;;;;;;3.90;1.67;;;;;;;25.11;45.09;97946.38;4947423;28;20053;-57
2022/05/25 08:46:26;;;;;;;6.13;1.90;;;;;;;23.11;53.75;97938.34;4947450;28;20442;-59
2022/05/25 08:48:52;;;;;;;4.55;1.90;;;;;;;22.24;58.29;97947.94;4946918;28;20550;-56
2022/05/25 08:51:22;;;;;;;4.03;1.80;;;;;;;24.96;53.01;97947.91;4945176;28;20043;-59
2022/05/25 08:53:48;;;;;;;3.75;1.75;;;;;;;25.12;48.25;97940.03;4947451;28;20032;-57
2022/05/25 08:56:29;;;;;;;5.97;1.75;;;;;;;25.53;50.00;97945.66;4946912;28;20066;-57
2022/05/25 08:59:12;;;;;;;5.68;2.10;;;;;;;25.15;46.87;97936.22;4949299;28;20035;-58
2022/05/25 09:01:43;;;;;;;5.32;2.00;;;;;;;27.39;43.80;97938.31;4947866;28;20049;-57
2022/05/25 09:04:37;;;;;;;4.97;1.87;;;;;;;26.43;45.16;97936.28;4947151;28;20055;-57
2022/05/25 09:07:23;;;;;;;8.70;2.00;;;;;;;27.29;49.31;97934.97;4949480;28;20279;-58
2022/05/25 09:09:50;;;;;;;4.97;1.90;;;;;;;29.77;40.27;97939.31;4950900;28;20027;-56
2022/05/25 09:13:04;;;;;;;3.53;1.60;;;;;;;29.57;40.12;97938.19;4950065;28;20476;-57
2022/05/25 09:15:34;;;;;;;6.43;2.00;;;;;;;27.48;41.80;97931.91;4928028;28;20031;-57
2022/05/25 09:18:19;;;;;;;5.53;1.70;;;;;;;29.06;41.38;97940.72;4929864;28;20537;-57
2022/05/25 09:20:49;;;;;;;6.07;1.83;;;;;;;25.92;46.19;97947.00;4941495;28;20035;-57
2022/05/25 09:23:15;;;;;;;5.00;1.90;;;;;;;23.86;46.29;97949.84;4952371;28;20058;-58
2022/05/25 09:25:43;;;;;;;6.45;2.30;;;;;;;22.95;50.89;97949.53;4948858;28;20101;-57
2022/05/25 09:28:16;;;;;;;6.22;2.17;;;;;;;23.74;54.94;97956.31;4950571;28;20023;-56
2022/05/25 09:30:44;;;;;;;6.13;2.08;;;;;;;25.41;52.06;97949.59;4948448;28;20097;-58
2022/05/25 09:33:18;;;;;;;5.22;2.20;;;;;;;26.40;45.49;97947.31;4952194;28;20031;-57
2022/05/25 09:35:50;;;;;;;7.13;2.10;;;;;;;25.58;47.98;97950.50;4950281;28;20070;-57
2022/05/25 09:38:30;;;;;;;4.00;1.67;;;;;;;25.09;48.80;97947.50;4950964;28;20114;-56
2022/05/25 09:40:56;;;;;;;5.20;2.00;;;;;;;24.57;52.99;97948.28;4949323;28;20031;-58
2022/05/25 09:43:23;;;;;;;3.58;1.90;;;;;;;25.01;48.88;97953.63;4949357;28;20115;-56
2022/05/25 09:45:52;;;;;;;6.25;2.15;;;;;;;25.43;49.60;97955.63;4950793;28;20787;-56
2022/05/25 09:48:27;;;;;;;5.60;1.88;;;;;;;26.30;47.48;97952.81;4949137;28;20039;-56
2022/05/25 09:51:34;;;;;;;5.18;2.15;;;;;;;25.12;49.11;97947.22;4948371;28;20035;-56
2022/05/25 09:54:11;;;;;;;4.90;1.95;;;;;;;24.66;52.65;97941.19;4947062;28;20039;-56
2022/05/25 09:56:45;;;;;;;6.15;2.17;;;;;;;24.24;53.96;97950.59;4950255;28;20042;-60
2022/05/25 09:59:20;;;;;;;4.82;2.17;;;;;;;22.92;58.06;97955.97;4948512;28;20027;-56
2022/05/25 10:01:48;;;;;;;5.60;2.00;;;;;;;24.47;51.59;97952.84;4962274;28;20251;-57
2022/05/25 10:04:51;;;;;;;8.10;2.40;;;;;;;24.68;48.09;97950.69;4948142;28;20042;-58
2022/05/25 10:07:30;;;;;;;4.57;2.13;;;;;;;25.53;48.39;97953.69;4949860;28;20823;-59
2022/05/25 10:10:01;;;;;;;5.15;2.20;;;;;;;25.17;46.94;97943.06;4949989;28;20118;-57
2022/05/25 10:12:31;;;;;;;5.88;2.33;;;;;;;23.11;48.79;97955.13;4948207;28;20097;-57
2022/05/25 10:15:08;;;;;;;6.60;2.35;;;;;;;22.61;50.42;97952.63;4962330;28;20428;-58
2022/05/25 10:17:39;;;;;;;5.57;2.20;;;;;;;24.17;47.86;97955.69;4947717;28;20654;-57
2022/05/25 10:20:34;;;;;;;7.00;2.42;;;;;;;25.68;45.54;97948.56;4947871;28;20031;-57
2022/05/25 10:23:22;;;;;;;7.75;2.03;;;;;;;25.71;44.35;97952.75;4948390;28;20102;-58
2022/05/25 10:25:54;;;;;;;8.82;2.20;;;;;;;26.52;45.33;97956.69;4950603;28;20542;-58
2022/05/25 10:28:27;;;;;;;8.15;2.28;;;;;;;26.05;48.24;97946.56;4947252;28;20121;-58
2022/05/25 10:37:17;;;;;;;5.10;2.03;;;;;;;24.15;51.14;97948.81;4949608;28;20070;-58
2022/05/25 10:39:59;;;;;;;8.13;2.22;;;;;;;24.97;53.44;97945.09;4948546;28;20456;-56
2022/05/25 10:42:44;;;;;;;6.90;2.20;;;;;;;25.74;47.79;97941.75;4947059;28;20039;-57
2022/05/25 10:45:19;;;;;;;5.53;2.10;;;;;;;26.04;44.21;97943.03;4949902;28;20081;-59
2022/05/25 10:47:51;;;;;;;;;;;;;;;;;;;;;
2022/05/25 10:50:16;;;;;;;4.63;2.05;;;;;;;26.41;44.13;97936.44;4949941;28;20038;-58
2022/05/25 10:52:48;;;;;;;6.87;2.50;;;;;;;24.78;46.98;97938.13;4947310;28;20042;-57
2022/05/25 10:55:13;;;;;;;6.00;2.10;;;;;;;23.89;51.19;97944.22;4949186;28;20374;-57
2022/05/25 10:58:02;;;;;;;4.97;1.80;;;;;;;24.53;50.03;97942.41;4949016;28;20027;-58
2022/05/25 11:00:52;;;;;;;5.45;1.95;;;;;;;24.91;48.54;97939.56;4935104;28;20054;-56
2022/05/25 11:03:44;;;;;;;5.95;2.03;;;;;;;24.19;48.63;97944.91;4948508;28;20038;-57
2022/05/25 11:06:09;;;;;;;7.47;2.00;;;;;;;23.37;48.12;97946.53;4945480;28;20031;-57
2022/05/25 11:08:41;;;;;;;9.60;2.40;;;;;;;23.03;48.28;97952.28;4949147;28;20035;-57
2022/05/25 11:11:31;;;;;;;6.32;1.80;;;;;;;24.43;49.26;97950.47;4947750;28;20355;-58
2022/05/25 11:14:02;;;;;;;6.38;2.20;;;;;;;24.94;43.88;97950.78;4948091;28;20019;-58
2022/05/25 11:16:55;;;;;;;6.22;1.92;;;;;;;24.34;43.86;97947.88;4948999;28;20037;-57
2022/05/25 11:19:42;;;;;;;7.10;2.30;;;;;;;23.03;47.42;97960.28;4946979;28;20037;-57
2022/05/25 11:22:30;;;;;;;6.15;2.10;;;;;;;22.68;51.56;97959.91;4946676;28;20039;-56
2022/05/25 11:25:07;;;;;;;8.88;2.13;;;;;;;23.14;48.44;97960.16;4947748;28;20054;-58
2022/05/25 11:27:48;;;;;;;7.43;2.17;;;;;;;23.13;47.57;97963.81;4946769;28;20043;-56
2022/05/25 11:30:13;;;;;;;6.05;2.05;;;;;;;22.76;47.20;97951.22;4947769;28;20035;-57
2022/05/25 11:32:57;;;;;;;7.33;2.30;;;;;;;22.82;49.10;97955.97;4948772;28;20038;-59
2022/05/25 11:35:48;;;;;;;9.32;2.63;;;;;;;23.14;47.21;97954.84;4948335;28;20496;-57
2022/05/25 11:38:41;;;;;;;9.75;2.47;;;;;;;22.79;48.69;97958.94;4948342;28;20042;-57
2022/05/25 11:41:26;;;;;;;9.02;2.47;;;;;;;22.05;48.17;97952.25;4946960;28;20121;-57
2022/05/25 11:44:10;;;;;;;7.45;2.30;;;;;;;22.75;52.67;97954.84;4949844;28;20576;-58
2022/05/25 11:46:38;;;;;;;9.57;2.47;;;;;;;22.76;50.15;97959.19;4946063;28;20042;-57
2022/05/25 11:49:15;;;;;;;9.77;2.40;;;;;;;22.58;48.97;97948.44;4947916;28;20705;-58
2022/05/25 11:52:08;;;;;;;7.20;2.20;;;;;;;21.55;49.50;97938.97;4945110;28;20046;-57
2022/05/25 11:55:18;;;;;;;7.38;2.33;;;;;;;21.61;51.10;97941.06;4948142;28;20038;-57
2022/05/25 11:58:03;;;;;;;7.70;2.30;;;;;;;22.12;52.19;97947.25;4940228;28;20043;-57
2022/05/25 12:00:44;;;;;;;8.73;2.33;;;;;;;21.96;52.27;97947.75;4946354;28;20110;-57
2022/05/25 12:03:37;;;;;;;7.85;2.20;;;;;;;21.71;51.10;97946.44;4948466;28;20945;-58
2022/05/25 12:06:30;;;;;;;9.45;2.20;;;;;;;21.65;51.34;97944.31;4946809;28;20032;-58